Latest Weather Observations for Maria Island

IDT60901

Issued at 5:11 pm EDT Tuesday 28 March 2017 (issued every 10 minutes, with the page automatically refreshed every 10 minutes)

About weather observations | Map of Hobart area stations | Latest observations for Hobart area | Other Formats
Station Details ID: 092124 Name: MARIA ISLAND (POINT LESUEUR) Lat: -42.66 Lon: 148.02 Height: 28.0 m
Data from the previous 72 hours. | See also: Recent months at Maria Island
Date/Time
EDT
Temp
°C
App
Temp
°C
Dew
Point
°C
Rel
Hum
%
Delta-T
°C
Wind Press
QNH
hPa
Press
MSL
hPa
Rain since
9am
mm
Dir  Spd
km/h
Gust
km/h
Spd
kts
Gust
kts
28/05:00pm 21.5 - - - - N 26 30 14 16 1003.4 1003.3 -
28/04:30pm 21.6 - - - - N 28 32 15 17 1003.3 1003.2 -
28/04:00pm 22.0 - - - - N 28 33 15 18 1003.3 1003.2 -
28/03:30pm 22.0 - - - - N 28 33 15 18 1003.2 1003.1 -
28/03:00pm 21.7 - - - - N 28 32 15 17 1003.6 1003.5 -
28/02:30pm 21.7 - - - - N 32 37 17 20 1003.8 1003.7 -
28/02:00pm 21.4 - - - - N 26 32 14 17 1004.3 1004.2 -
28/01:30pm 21.8 - - - - NNW 24 30 13 16 1004.8 1004.7 -
28/01:00pm 21.2 - - - - N 26 32 14 17 1005.0 1004.9 -
28/12:30pm 20.4 - - - - NNW 22 32 12 17 1005.7 1005.6 -
28/12:00pm 19.9 - - - - NNW 22 28 12 15 1005.7 1005.6 -
28/11:30am 19.5 - - - - N 24 32 13 17 1005.9 1005.8 -
28/11:00am 18.8 - - - - N 20 26 11 14 1006.2 1006.1 -
28/10:30am 18.2 - - - - N 19 22 10 12 1006.4 1006.3 -
28/10:00am 17.2 - - - - N 24 35 13 19 1006.4 1006.3 -
28/09:30am 16.5 - - - - NNW 33 39 18 21 1006.4 1006.3 0.0
28/09:00am 16.0 - - - - NNW 17 28 9 15 1006.4 1006.3 0.0
28/08:30am 14.7 - - - - NW 15 26 8 14 1006.3 1006.2 0.0
28/08:00am 13.9 - - - - NW 17 26 9 14 1006.2 1006.1 0.0
28/07:30am 13.5 - - - - NW 19 24 10 13 1006.2 1006.1 0.0
28/07:00am 14.1 - - - - NNW 32 39 17 21 1005.8 1005.7 0.0
28/06:30am 14.2 - - - - NNW 33 39 18 21 1005.7 1005.6 0.0
28/06:00am 14.0 - - - - NNW 35 41 19 22 1005.6 1005.5 0.0
28/05:30am 14.1 - - - - NNW 39 46 21 25 1005.3 1005.2 0.0
28/05:00am 14.4 - - - - N 41 48 22 26 1004.9 1004.8 0.0
28/04:30am 14.5 - - - - N 44 50 24 27 1004.2 1004.1 0.0
28/04:00am 14.5 - - - - N 37 43 20 23 1004.2 1004.1 0.0
28/03:30am 14.8 - - - - N 33 39 18 21 1004.5 1004.4 0.0
28/03:00am 14.9 - - - - N 35 41 19 22 1004.5 1004.4 0.0
28/02:30am 15.4 - - - - N 39 44 21 24 1004.0 1003.9 0.0
28/02:00am 15.9 - - - - N 28 35 15 19 1004.5 1004.4 0.0
28/01:30am 15.8 - - - - N 24 37 13 20 1004.6 1004.5 0.0
28/01:00am 16.1 - - - - NNW 22 33 12 18 1004.7 1004.6 0.0
28/12:30am 16.0 - - - - NNW 22 26 12 14 1004.7 1004.6 0.0
28/12:00am 16.2 - - - - NNW 22 33 12 18 1004.6 1004.5 0.0
 
Date/Time
EDT
Temp
°C
App
Temp
°C
Dew
Point
°C
Rel
Hum
%
Delta-T
°C
Wind Press
QNH
hPa
Press
MSL
hPa
Rain since
9am
mm
Dir  Spd
km/h
Gust
km/h
Spd
kts
Gust
kts
27/11:30pm 16.2 - - - - NNW 24 32 13 17 1004.4 1004.3 0.0
27/11:00pm 15.9 - - - - NNW 33 39 18 21 1003.4 1003.3 0.0
27/10:30pm 16.3 - - - - NNW 22 28 12 15 1003.7 1003.6 0.0
27/10:00pm 17.0 - - - - NW 33 52 18 28 1003.3 1003.2 0.0
27/09:34pm 16.9 - - - - NW 30 48 16 26 1002.7 1002.6 0.0
27/09:30pm 16.9 - - - - NW 26 37 14 20 1002.8 1002.7 0.0
27/09:00pm 17.0 - - - - NW 28 41 15 22 1002.3 1002.2 0.0
27/08:30pm 17.1 - - - - NW 24 33 13 18 1002.2 1002.1 0.0
27/08:00pm 16.8 - - - - WNW 20 30 11 16 1001.2 1001.1 0.0
27/07:30pm 16.9 - - - - W 19 32 10 17 1001.2 1001.1 0.0
27/07:00pm 16.6 - - - - WNW 26 41 14 22 1000.8 1000.7 0.0
27/06:30pm 16.9 - - - - WNW 44 65 24 35 999.2 999.1 0.0
27/06:15pm 17.0 - - - - WNW 43 61 23 33 998.7 998.7 0.0
27/06:00pm 16.7 - - - - WNW 35 48 19 26 998.7 998.7 0.0
27/05:30pm 16.0 - - - - WNW 24 35 13 19 999.2 999.1 0.0
27/05:00pm 16.7 - - - - WNW 35 46 19 25 999.0 999.0 0.0
27/04:39pm 18.5 - - - - NW 35 54 19 29 998.4 998.4 0.0
27/04:30pm 18.8 - - - - WNW 33 48 18 26 998.4 998.4 0.0
27/04:00pm 18.5 - - - - NW 32 46 17 25 997.8 997.8 0.0
27/03:40pm 18.4 - - - - W 67 95 36 51 997.6 997.6 0.0
27/03:30pm 22.4 - - - - NW 69 100 37 54 996.2 996.2 0.0
27/03:29pm 23.4 - - - - NNW 65 85 35 46 996.2 996.2 0.0
27/03:07pm 23.9 - - - - N 63 83 34 45 994.6 994.6 0.0
27/03:00pm 24.5 - - - - NNW 67 83 36 45 994.0 994.0 0.0
27/02:50pm 25.1 - - - - N 63 85 34 46 993.8 993.8 0.0
27/02:41pm 23.8 - - - - N 48 82 26 44 994.2 994.2 0.0
27/02:39pm 22.7 - - - - N 43 61 23 33 994.8 994.8 0.0
27/02:30pm 21.4 - - - - N 41 46 22 25 995.6 995.6 0.0
27/02:00pm 22.0 - - - - N 44 50 24 27 995.6 995.6 0.0
27/01:30pm 22.0 - - - - N 48 56 26 30 995.6 995.6 0.0
27/01:00pm 20.2 - - - - NNE 43 52 23 28 996.9 996.9 0.0
27/12:55pm 20.0 - - - - NNE 44 52 24 28 996.9 996.9 0.0
27/12:30pm 19.6 - - - - N 44 52 24 28 998.9 998.9 0.0
27/12:00pm 19.0 - - - - N 37 41 20 22 998.6 998.6 0.0
27/11:30am 19.5 - - - - N 39 44 21 24 999.4 999.3 0.0
27/11:00am 19.4 - - - - N 37 46 20 25 1000.1 1000.0 0.0
27/10:30am 20.5 - - - - N 37 44 20 24 1000.9 1000.8 0.0
27/10:00am 19.3 - - - - N 41 44 22 24 1001.6 1001.5 0.0
27/09:30am 19.0 - - - - N 33 39 18 21 1002.6 1002.5 0.0
27/09:00am 18.7 - - - - N 32 35 17 19 1003.6 1003.5 0.0
27/08:30am 18.2 - - - - N 32 35 17 19 1004.1 1004.0 0.0
27/08:00am 17.8 - - - - N 30 33 16 18 1004.0 1003.9 0.0
27/07:30am 17.3 - - - - N 26 30 14 16 1004.7 1004.6 0.0
27/07:00am 16.7 - - - - N 20 24 11 13 1005.6 1005.5 0.0
27/06:30am 16.8 - - - - NNW 17 20 9 11 1005.9 1005.8 0.0
27/06:00am 16.7 - - - - NNW 20 22 11 12 1006.3 1006.2 0.0
27/05:30am 16.9 - - - - N 24 28 13 15 1006.5 1006.4 0.0
27/05:00am 17.0 - - - - N 33 39 18 21 1006.5 1006.4 0.0
27/04:30am 17.0 - - - - N 35 41 19 22 1007.1 1007.0 0.0
27/04:00am 17.1 - - - - N 41 48 22 26 1007.2 1007.1 0.0
27/03:30am 16.7 - - - - N 26 30 14 16 1008.3 1008.2 0.0
27/03:00am 16.5 - - - - N 30 33 16 18 1009.1 1009.0 0.0
27/02:30am 16.9 - - - - N 33 39 18 21 1009.4 1009.3 0.0
27/02:00am 17.1 - - - - N 35 39 19 21 1009.6 1009.5 0.0
27/01:30am 17.2 - - - - N 24 30 13 16 1010.4 1010.3 0.0
27/01:00am 17.2 - - - - N 33 39 18 21 1010.8 1010.7 0.0
27/12:30am 17.1 - - - - N 24 30 13 16 1011.5 1011.4 0.0
27/12:00am 17.1 - - - - N 24 32 13 17 1012.1 1012.0 0.0
 
Date/Time
EDT
Temp
°C
App
Temp
°C
Dew
Point
°C
Rel
Hum
%
Delta-T
°C
Wind Press
QNH
hPa
Press
MSL
hPa
Rain since
9am
mm
Dir  Spd
km/h
Gust
km/h
Spd
kts
Gust
kts
26/11:30pm 17.1 - - - - NNE 24 28 13 15 1012.7 1012.6 0.0
26/11:00pm 17.1 - - - - N 20 24 11 13 1013.4 1013.3 0.0
26/10:30pm 16.9 - - - - NNE 20 24 11 13 1013.4 1013.3 0.0
26/10:00pm 16.8 - - - - NNE 19 22 10 12 1013.5 1013.4 0.0
26/09:30pm 16.5 - - - - N 13 17 7 9 1014.0 1013.9 0.0
26/09:00pm 16.4 - - - - N 11 13 6 7 1014.0 1013.9 0.0
26/08:30pm 16.2 - - - - NE 4 6 2 3 1013.9 1013.8 0.0
26/08:00pm 16.7 - - - - NE 7 13 4 7 1014.0 1013.9 0.0
26/07:30pm 16.7 - - - - WNW 11 15 6 8 1013.9 1013.8 0.0
26/07:00pm 16.9 - - - - E 13 19 7 10 1013.9 1013.8 0.0
26/06:30pm 17.4 - - - - ESE 11 15 6 8 1013.9 1013.8 0.0
26/06:00pm 17.8 - - - - ESE 15 17 8 9 1013.7 1013.6 0.0
26/05:30pm 18.2 - - - - E 13 19 7 10 1013.8 1013.7 0.0
26/05:00pm 18.4 - - - - E 13 15 7 8 1013.9 1013.8 0.0
26/04:30pm 18.7 - - - - E 19 22 10 12 1013.9 1013.8 0.0
26/04:00pm 18.8 - - - - E 19 22 10 12 1014.0 1013.9 0.0
26/03:30pm 18.9 - - - - E 20 24 11 13 1014.0 1013.9 0.0
26/03:00pm 18.9 - - - - E 20 24 11 13 1014.1 1014.0 0.0
26/02:30pm 19.3 - - - - E 19 22 10 12 1014.5 1014.4 0.0
26/02:00pm 19.1 - - - - E 22 28 12 15 1014.7 1014.6 0.0
26/01:30pm 19.7 - - - - E 17 20 9 11 1014.9 1014.8 0.0
26/01:00pm 19.1 - - - - E 17 20 9 11 1015.3 1015.3 0.0
26/12:30pm 19.6 - - - - E 15 19 8 10 1015.4 1015.4 0.0
26/12:00pm 18.8 - - - - SSE 7 11 4 6 1015.6 1015.6 0.0
26/11:30am 18.3 - - - - S 9 11 5 6 1015.9 1015.9 0.0
26/11:00am 17.7 - - - - S 11 13 6 7 1015.7 1015.7 0.0
26/10:30am 17.4 - - - - S 9 13 5 7 1015.8 1015.8 0.0
26/10:00am 16.7 - - - - S 15 17 8 9 1015.7 1015.7 0.0
26/09:30am 16.1 - - - - S 4 6 2 3 1015.3 1015.3 0.0
26/09:00am 15.2 - - - - WNW 6 6 3 3 1015.1 1015.1 0.0
26/08:30am 15.2 - - - - W 6 6 3 3 1014.7 1014.6 0.0
26/08:00am 14.6 - - - - W 6 6 3 3 1014.5 1014.4 0.0
26/07:30am 13.9 - - - - WNW 7 7 4 4 1014.1 1014.0 0.0
26/07:00am 15.0 - - - - SW 2 7 1 4 1013.5 1013.4 0.0
26/06:30am 14.8 - - - - SSE 4 6 2 3 1013.5 1013.4 0.0
26/06:00am 14.8 - - - - S 6 9 3 5 1013.4 1013.3 0.0
26/05:30am 14.7 - - - - SW 4 6 2 3 1013.3 1013.2 0.0
26/05:00am 14.8 - - - - SW 2 2 1 1 1013.3 1013.2 0.0
26/04:30am 14.6 - - - - CALM 0 0 0 0 1013.3 1013.2 0.0
26/04:00am 15.0 - - - - W 6 6 3 3 1013.5 1013.4 0.0
26/03:30am 14.9 - - - - SW 2 4 1 2 1013.3 1013.2 0.0
26/03:00am 14.8 - - - - CALM 0 0 0 0 1013.5 1013.4 0.0
26/02:30am 15.2 - - - - CALM 0 0 0 0 1013.5 1013.4 0.0
26/02:00am 15.1 - - - - NW 4 4 2 2 1013.6 1013.5 0.0
26/01:30am 14.7 - - - - WNW 6 7 3 4 1013.5 1013.4 0.0
26/01:00am 15.0 - - - - NW 6 7 3 4 1013.4 1013.3 0.0
26/12:30am 14.8 - - - - WNW 6 7 3 4 1013.4 1013.3 0.0
26/12:00am 15.9 - - - - N 6 6 3 3 1013.5 1013.4 0.0
 
Date/Time
EDT
Temp
°C
App
Temp
°C
Dew
Point
°C
Rel
Hum
%
Delta-T
°C
Wind Press
QNH
hPa
Press
MSL
hPa
Rain since
9am
mm
Dir  Spd
km/h
Gust
km/h
Spd
kts
Gust
kts
25/11:30pm 15.7 - - - - N 4 4 2 2 1013.6 1013.5 0.0
25/11:00pm 16.1 - - - - N 6 7 3 4 1013.5 1013.4 0.0
25/10:30pm 16.4 - - - - N 7 9 4 5 1013.4 1013.3 0.0
25/10:00pm 16.6 - - - - NNE 7 7 4 4 1013.3 1013.2 0.0
25/09:30pm 16.7 - - - - NNE 9 11 5 6 1013.0 1012.9 0.0
25/09:00pm 17.2 - - - - N 13 15 7 8 1012.8 1012.7 0.0
25/08:30pm 17.4 - - - - N 15 17 8 9 1012.7 1012.6 0.0
25/08:00pm 17.5 - - - - N 15 17 8 9 1012.6 1012.5 0.0
25/07:30pm 17.6 - - - - N 19 20 10 11 1012.4 1012.3 0.0
25/07:00pm 17.6 - - - - N 17 19 9 10 1012.2 1012.1 0.0
25/06:30pm 17.7 - - - - N 17 19 9 10 1012.1 1012.0 0.0
25/06:00pm 17.7 - - - - N 19 22 10 12 1011.8 1011.7 0.0
25/05:30pm 17.7 - - - - N 19 22 10 12 1012.0 1011.9 0.0

Latest Capital City Observations: Canberra | Sydney | Melbourne | Brisbane | Adelaide | Perth | Hobart | Darwin

Other Formats:

Comma delimited format used in spreadsheet applications
http://www.bom.gov.au/fwo/IDT60901/IDT60901.95988.axf

JavaScript Object Notation format (JSON) in row-major order
http://www.bom.gov.au/fwo/IDT60901/IDT60901.95988.json